Middle Village, NY (11379)

9:46 PM EDT on June 02, 2015 (GMT -0400)
Middle Village Juniper Valley Park | | Change Station
CLOSE
Current Station
Personal Weather Station
Location: Queens, NY
Elevation: 108 ft
Nearby Weather Stations

Elev 108 ft 40.72 °N, 73.89 °W | Updated 23 seconds ago

Rain
Rain
53.2 °F
Feels Like 53.2 °F
N
4.0
Wind Variable Wind from North
Gusts 6.0 mph

Today
High -- | Low -- °F
--% Chance of Precip.
Yesterday
High -- | Low -- °F
Precip. -- in
5:26 AM 8:21 PM
Full, 100% visible
Pressure 30.15 in
Visibility 9.0 miles
Clouds Scattered Clouds 900 ft
Mostly Cloudy 1600 ft
Overcast 10000 ft
Dew Point 52 °F
Humidity 94%
Rainfall 0.45 in
Snow Depth Not available.
UV 0 out of 12
Pollen .90 out of 12
Air Quality Not available.
Flu Activity Sporadic
METAR KLGA 030051Z 07008KT 9SM -RA SCT009 BKN016 OVC100 12/10 A3015 RMK AO2 SLP210 P0004 T01220100

More Conditions Fewer Conditions

Pressure 30.15 in
Visibility 9.0 miles
Clouds Scattered Clouds 900 ft
Mostly Cloudy 1600 ft
Overcast 10000 ft
Dew Point 52 °F
Humidity 94%
Rainfall 0.45 in
Snow Depth Not available.
UV 0 out of 12
Pollen .90 out of 12
Air Quality Not available.
Flu Activity Sporadic
METAR KLGA 030051Z 07008KT 9SM -RA SCT009 BKN016 OVC100 12/10 A3015 RMK AO2 SLP210 P0004 T01220100

More Conditions Fewer Conditions

10-Day Weather Forecast

×

Almanac

Astronomy

Jun. 02, 2015 Rise Set
Actual Time
Civil Twilight
Nautical Twilight
Astronomical Twilight
Moon
Length of Visible Light
Length of Day
Tomorrow will be .
, % of the Moon is Illuminated

Today's Extremes

State Highs State Lows

Community

WunderPhotos

Upload Photos

1,826,097 photos uploaded!

WunderBlogs® & News

Nearby

Air Quality

  Air Quality AQ Index Pollutant
Not available.

Snow Depth

Station Depth Elevation

Earthquake Activity

City Distance Mag. Time & Date
Minimum magnitude displayed is 2.5.

Coastal Water Temperatures

Place Temperature

Stations

Nearby Weather Stations

Station Location Temp. Windchill Dew Point Humidity Wind Precip. Elev Updated Type